createdAt,value
2023-04-19T00:05:50.281Z,5
2023-04-19T00:11:50.315Z,5
2023-04-19T00:17:50.343Z,5
2023-04-19T00:23:50.307Z,5
2023-04-19T00:29:50.288Z,5
2023-04-19T00:35:50.289Z,6
2023-04-19T00:41:50.275Z,5
2023-04-19T00:47:50.322Z,6
2023-04-19T00:53:50.282Z,5
2023-04-19T00:59:50.276Z,6
2023-04-19T01:05:50.290Z,7
2023-04-19T01:11:50.302Z,8
2023-04-19T01:17:50.337Z,7
2023-04-19T01:23:50.296Z,8
2023-04-19T01:29:50.295Z,9
2023-04-19T01:35:50.282Z,8
2023-04-19T01:41:50.282Z,8
2023-04-19T01:47:50.337Z,9
2023-04-19T01:53:50.281Z,9
2023-04-19T01:59:50.293Z,9
2023-04-19T02:05:50.300Z,9
2023-04-19T02:11:50.273Z,9
2023-04-19T02:18:00.632Z,9
2023-04-19T02:23:50.291Z,8
2023-04-19T02:29:50.270Z,9
2023-04-19T02:35:50.285Z,9
2023-04-19T02:41:50.273Z,8
2023-04-19T02:47:50.350Z,8
2023-04-19T02:53:50.272Z,8
2023-04-19T02:59:50.283Z,8
2023-04-19T03:05:50.265Z,8
2023-04-19T03:11:50.267Z,8
2023-04-19T03:17:50.354Z,8
2023-04-19T03:23:50.275Z,8
2023-04-19T03:29:50.275Z,9
2023-04-19T03:35:50.268Z,9
2023-04-19T03:41:50.269Z,9
2023-04-19T03:47:50.292Z,9
2023-04-19T03:53:50.254Z,9
2023-04-19T03:59:50.257Z,9
2023-04-19T04:05:50.241Z,9
2023-04-19T04:11:50.267Z,9
2023-04-19T04:17:50.280Z,8
2023-04-19T04:23:50.250Z,9
2023-04-19T04:29:50.258Z,9
2023-04-19T04:41:50.265Z,10
2023-04-19T04:47:50.315Z,9
2023-04-19T04:53:50.270Z,10
2023-04-19T04:59:50.279Z,10
2023-04-19T05:05:50.284Z,10
2023-04-19T05:11:50.282Z,10
2023-04-19T05:17:50.360Z,9
2023-04-19T05:23:50.300Z,10
2023-04-19T05:29:50.292Z,10
2023-04-19T05:35:50.287Z,10
2023-04-19T05:41:50.313Z,10
2023-04-19T05:47:50.299Z,10
2023-04-19T05:53:50.269Z,10
2023-04-19T05:59:50.279Z,10
2023-04-19T06:05:50.294Z,10
2023-04-19T06:11:51.644Z,9
2023-04-19T06:17:50.319Z,9
2023-04-19T06:23:50.293Z,10
2023-04-19T06:29:51.354Z,9
2023-04-19T06:41:50.276Z,9
2023-04-19T06:47:50.354Z,11
2023-04-19T06:53:50.266Z,9
2023-04-19T06:59:50.272Z,9
2023-04-19T07:05:50.332Z,8
2023-04-19T07:11:50.289Z,8
2023-04-19T07:17:50.322Z,11
2023-04-19T07:23:50.269Z,8
2023-04-19T07:29:50.275Z,8
2023-04-19T07:35:50.271Z,7
2023-04-19T07:41:50.270Z,6
2023-04-19T07:47:50.317Z,6
2023-04-19T07:53:50.291Z,5
2023-04-19T07:59:50.253Z,5
2023-04-19T08:05:50.364Z,5
2023-04-19T08:11:50.263Z,5
2023-04-19T08:17:50.363Z,5
2023-04-19T08:23:51.923Z,4
2023-04-19T08:29:50.287Z,5
2023-04-19T08:35:50.286Z,5
2023-04-19T08:41:55.907Z,4
2023-04-19T08:47:59.636Z,5
2023-04-19T08:53:50.301Z,4
2023-04-19T08:59:50.313Z,4
2023-04-19T09:05:50.668Z,4
2023-04-19T09:11:50.294Z,4
2023-04-19T09:17:50.315Z,4
2023-04-19T09:23:50.350Z,4
2023-04-19T09:29:50.280Z,4
2023-04-19T09:35:50.289Z,4
2023-04-19T09:41:50.283Z,4
2023-04-19T09:47:50.346Z,4
2023-04-19T09:53:50.316Z,4
2023-04-19T09:59:50.304Z,4
2023-04-19T10:05:50.325Z,4
2023-04-19T10:11:52.159Z,4
2023-04-19T10:17:50.402Z,4
2023-04-19T10:23:50.327Z,4
2023-04-19T10:29:50.319Z,4
2023-04-19T10:35:50.311Z,4
2023-04-19T10:41:50.309Z,4
2023-04-19T10:47:50.351Z,4
2023-04-19T10:53:50.331Z,3
2023-04-19T10:59:50.298Z,2
2023-04-19T11:05:50.308Z,3
2023-04-19T11:11:50.309Z,3
2023-04-19T11:18:00.992Z,3
2023-04-19T11:23:50.325Z,4
2023-04-19T11:29:50.315Z,4
2023-04-19T11:35:50.294Z,4
2023-04-19T11:41:50.333Z,3
2023-04-19T11:47:50.502Z,3
2023-04-19T11:53:50.350Z,4
2023-04-19T11:59:50.293Z,3
2023-04-19T12:05:50.326Z,3
2023-04-19T12:11:50.448Z,3
2023-04-19T12:17:56.869Z,3
2023-04-19T12:23:50.344Z,2
2023-04-19T12:29:50.324Z,2
2023-04-19T12:35:50.328Z,2
2023-04-19T12:41:50.392Z,2
2023-04-19T12:47:50.312Z,2
2023-04-19T12:53:50.308Z,2
2023-04-19T12:59:50.303Z,2
2023-04-19T13:05:50.294Z,2
2023-04-19T13:11:50.305Z,2
2023-04-19T13:17:50.355Z,2
2023-04-19T13:23:50.340Z,2
2023-04-19T13:29:50.297Z,2
2023-04-19T13:35:50.323Z,2
2023-04-19T13:41:50.306Z,2
2023-04-19T13:47:50.300Z,2
2023-04-19T13:53:50.307Z,2
2023-04-19T13:59:50.298Z,2
2023-04-19T14:05:50.323Z,2
2023-04-19T14:11:50.305Z,2
2023-04-19T14:17:50.319Z,2
2023-04-19T14:23:50.318Z,2
2023-04-19T14:29:50.372Z,3
2023-04-19T14:35:50.303Z,3
2023-04-19T14:41:50.300Z,2
2023-04-19T14:47:50.310Z,2
2023-04-19T14:53:50.322Z,2
2023-04-19T14:59:50.308Z,2
2023-04-19T15:05:50.321Z,3
2023-04-19T15:12:00.608Z,3
2023-04-19T15:17:50.326Z,3
2023-04-19T15:23:50.306Z,3
2023-04-19T15:29:50.307Z,2
2023-04-19T15:35:50.300Z,2
2023-04-19T15:41:50.347Z,3
2023-04-19T15:47:50.316Z,3
2023-04-19T15:53:50.308Z,3
2023-04-19T15:59:50.341Z,3
2023-04-19T16:05:50.311Z,2
2023-04-19T16:11:50.295Z,3
2023-04-19T16:17:50.411Z,3
2023-04-19T16:23:50.319Z,3
2023-04-19T16:29:50.329Z,3
2023-04-19T16:35:50.297Z,2
2023-04-19T16:41:50.305Z,2
2023-04-19T16:47:50.374Z,3
2023-04-19T16:53:50.297Z,3
2023-04-19T16:59:50.303Z,3
2023-04-19T17:05:50.313Z,3
2023-04-19T17:11:50.294Z,3
2023-04-19T17:17:50.426Z,3
2023-04-19T17:23:50.307Z,4
2023-04-19T17:29:50.311Z,3
2023-04-19T17:35:50.305Z,4
2023-04-19T17:41:50.313Z,3
2023-04-19T17:47:50.402Z,7
2023-04-19T17:53:50.314Z,4
2023-04-19T17:59:50.303Z,3
2023-04-19T18:05:50.291Z,3
2023-04-19T18:11:50.321Z,3
2023-04-19T18:17:50.329Z,3
2023-04-19T18:23:50.306Z,3
2023-04-19T18:29:50.323Z,3
2023-04-19T18:35:50.316Z,4
2023-04-19T18:41:50.306Z,3
2023-04-19T18:47:50.374Z,3
2023-04-19T18:53:50.303Z,3
2023-04-19T18:59:50.304Z,3
2023-04-19T19:05:50.496Z,3
2023-04-19T19:11:56.244Z,3
2023-04-19T19:17:50.804Z,3
2023-04-19T19:23:52.454Z,3
2023-04-19T19:29:50.308Z,3
2023-04-19T19:35:50.302Z,3
2023-04-19T19:42:05.473Z,3
2023-04-19T19:47:50.637Z,3
2023-04-19T19:53:50.295Z,3
2023-04-19T19:59:56.025Z,3
2023-04-19T20:05:50.340Z,3
2023-04-19T20:11:50.320Z,4
2023-04-19T20:17:50.364Z,4
2023-04-19T20:23:50.441Z,4
2023-04-19T20:29:50.314Z,3
2023-04-19T20:35:50.303Z,4
2023-04-19T20:41:50.313Z,3
2023-04-19T20:47:50.323Z,3
2023-04-19T20:53:50.364Z,3
2023-04-19T20:59:50.357Z,3
2023-04-19T21:05:50.293Z,3
2023-04-19T21:11:50.315Z,4
2023-04-19T21:17:50.351Z,4
2023-04-19T21:23:50.295Z,4
2023-04-19T21:29:50.290Z,4
2023-04-19T21:41:50.309Z,3
2023-04-19T21:47:50.324Z,4
2023-04-19T21:53:50.304Z,4
2023-04-19T21:59:50.301Z,4
2023-04-19T22:05:50.297Z,4
2023-04-19T22:11:50.294Z,4
2023-04-19T22:17:50.356Z,4
2023-04-19T22:23:50.312Z,3
2023-04-19T22:29:50.328Z,4
2023-04-19T22:35:50.290Z,4
2023-04-19T22:41:50.304Z,4
2023-04-19T22:47:50.306Z,4
2023-04-19T22:53:50.296Z,4
2023-04-19T22:59:50.292Z,4
2023-04-19T23:05:50.285Z,4
2023-04-19T23:11:50.274Z,4
2023-04-19T23:17:50.342Z,4
2023-04-19T23:23:50.283Z,4
2023-04-19T23:29:50.298Z,4
2023-04-19T23:35:50.276Z,4
2023-04-19T23:41:50.513Z,4
2023-04-19T23:47:50.347Z,4
2023-04-19T23:53:50.308Z,4
2023-04-19T23:59:50.301Z,4
